Time;durP1;ratioP1;P1;durP2;ratioP2;P2;SDS_P1;SDS_P2;PMS_P1;PMS_P2;Temp;Humidity;BMP_temperature;BMP_pressure;BME280_temperature;BME280_humidity;BME280_pressure;Samples;Min_cycle;Max_cycle;Signal;HPM_P1;HPM_P2
2022/06/16 00:01:32;;;;;;;;;;;16.50;99.90;;;;;;5061393;28;19974;-57
2022/06/16 00:03:59;;;;;;;;;;;16.30;99.90;;;;;;5060388;28;20031;-57
2022/06/16 00:06:24;;;;;;;;;;;16.40;99.90;;;;;;5066746;28;19920;-56
2022/06/16 00:08:50;;;;;;;;;;;16.50;99.90;;;;;;5068698;28;19966;-57
2022/06/16 00:11:19;;;;;;;;;;;16.30;99.90;;;;;;5064071;28;19964;-57
2022/06/16 00:13:45;;;;;;;;;;;16.40;99.90;;;;;;5068756;28;19963;-57
2022/06/16 00:16:11;;;;;;;;;;;16.50;99.90;;;;;;5064397;28;19916;-57
2022/06/16 00:18:37;;;;;;;;;;;16.40;99.90;;;;;;5058826;28;20384;-57
2022/06/16 00:21:04;;;;;;;;;;;16.30;99.90;;;;;;5071473;28;19939;-57
2022/06/16 00:23:29;;;;;;;;;;;16.00;99.90;;;;;;5064119;28;20016;-57
2022/06/16 00:25:55;;;;;;;;;;;16.00;99.90;;;;;;5070987;28;19995;-57
2022/06/16 00:28:20;;;;;;;;;;;15.80;99.90;;;;;;5067149;28;20325;-57
2022/06/16 00:30:46;;;;;;;;;;;15.80;99.90;;;;;;5067115;28;20022;-57
2022/06/16 00:33:11;;;;;;;;;;;15.70;99.90;;;;;;5058633;28;19912;-58
2022/06/16 00:35:37;;;;;;;;;;;15.70;99.90;;;;;;5066226;28;20425;-57
2022/06/16 00:38:03;;;;;;;;;;;15.70;99.90;;;;;;5061097;28;20314;-57
2022/06/16 00:40:28;;;;;;;;;;;15.70;99.90;;;;;;5066440;28;20384;-57
2022/06/16 00:42:54;;;;;;;;;;;15.70;99.90;;;;;;5066051;28;20030;-58
2022/06/16 00:45:38;;;;;;;;;;;15.70;99.90;;;;;;5071510;28;19916;-57
2022/06/16 00:48:03;;;;;;;;;;;15.70;99.90;;;;;;5068081;28;19916;-57
2022/06/16 00:50:29;;;;;;;;;;;15.60;99.90;;;;;;5059184;28;19916;-57
2022/06/16 00:52:54;;;;;;;;;;;15.50;99.90;;;;;;5057937;28;20039;-57
2022/06/16 00:55:20;;;;;;;;;;;15.40;99.90;;;;;;5068466;28;19970;-57
2022/06/16 00:57:48;;;;;;;;;;;15.40;99.90;;;;;;5063248;28;19959;-56
2022/06/16 01:02:57;;;;;;;;;;;15.50;99.90;;;;;;5073598;28;19927;-57
2022/06/16 01:05:23;;;;;;;;;;;15.40;99.90;;;;;;5055601;28;19917;-57
2022/06/16 01:07:49;;;;;;;;;;;15.50;99.90;;;;;;5056814;28;20301;-58
2022/06/16 01:10:15;;;;;;;;;;;15.40;99.90;;;;;;5055249;28;19916;-57
2022/06/16 01:15:38;;;;;;;;;;;15.30;99.90;;;;;;5056758;28;19928;-57
2022/06/16 01:18:21;;;;;;;;;;;15.30;99.90;;;;;;5068772;28;20019;-57
2022/06/16 01:20:52;;;;;;;;;;;15.20;99.90;;;;;;5064664;28;19938;-57
2022/06/16 01:23:26;;;;;;;;;;;15.10;99.90;;;;;;5060362;28;19940;-57
2022/06/16 01:25:57;;;;;;;;;;;15.40;99.90;;;;;;5062104;28;20446;-58
2022/06/16 01:28:23;;;;;;;;;;;15.20;99.90;;;;;;5065911;28;20005;-57
2022/06/16 01:30:48;;;;;;;;;;;15.10;99.90;;;;;;5071542;28;19916;-58
2022/06/16 01:33:46;;;;;;;;;;;15.00;99.90;;;;;;5071432;28;19947;-57
2022/06/16 01:36:18;;;;;;;;;;;15.00;99.90;;;;;;5039208;28;19935;-56
2022/06/16 01:38:58;;;;;;;;;;;14.60;99.90;;;;;;5058610;28;19920;-57
2022/06/16 01:41:32;;;;;;;;;;;14.70;99.90;;;;;;5061275;28;20458;-57
2022/06/16 01:44:08;;;;;;;;;;;14.80;99.90;;;;;;5061896;28;19920;-57
2022/06/16 01:46:36;;;;;;;;;;;14.80;99.90;;;;;;5052550;28;19995;-57
2022/06/16 01:49:03;;;;;;;;;;;14.60;99.90;;;;;;5069519;28;20434;-57
2022/06/16 01:51:40;;;;;;;;;;;14.70;99.90;;;;;;5064525;28;19919;-56
2022/06/16 01:54:09;;;;;;;;;;;14.70;99.90;;;;;;5063139;28;20053;-57
2022/06/16 01:56:38;;;;;;;;;;;14.80;99.90;;;;;;5057726;28;19919;-57
2022/06/16 01:59:08;;;;;;;;;;;14.60;99.90;;;;;;5059611;28;20565;-57
2022/06/16 02:01:37;;;;;;;;;;;14.60;99.90;;;;;;5061665;28;19970;-58
2022/06/16 02:04:06;;;;;;;;;;;14.50;99.90;;;;;;5067797;28;19920;-58
2022/06/16 02:06:34;;;;;;;;;;;14.60;99.90;;;;;;5064946;28;20378;-57
2022/06/16 02:09:22;;;;;;;;;;;14.50;99.90;;;;;;5053550;28;19927;-58
2022/06/16 02:11:49;;;;;;;;;;;14.30;99.90;;;;;;5053535;28;19921;-58
2022/06/16 02:14:18;;;;;;;;;;;14.30;99.90;;;;;;5063563;28;20376;-58
2022/06/16 02:16:45;;;;;;;;;;;14.30;99.90;;;;;;5055502;28;19931;-58
2022/06/16 02:19:12;;;;;;;;;;;14.20;99.90;;;;;;5060268;28;20434;-58
2022/06/16 02:21:40;;;;;;;;;;;14.20;99.90;;;;;;5061942;28;19924;-57
2022/06/16 02:24:07;;;;;;;;;;;14.30;99.90;;;;;;5059785;28;19971;-58
2022/06/16 02:26:33;;;;;;;;;;;14.20;99.90;;;;;;5055599;28;19917;-58
2022/06/16 02:29:00;;;;;;;;;;;14.20;99.90;;;;;;5064448;28;19912;-58
2022/06/16 02:31:41;;;;;;;;;;;14.40;99.90;;;;;;5054327;28;20015;-58
2022/06/16 02:34:06;;;;;;;;;;;14.40;99.90;;;;;;5054742;28;19917;-58
2022/06/16 02:36:50;;;;;;;;;;;14.40;99.90;;;;;;5058779;28;19920;-58
2022/06/16 02:39:24;;;;;;;;;;;14.40;99.90;;;;;;5057470;28;19917;-58
2022/06/16 02:41:49;;;;;;;;;;;14.50;99.90;;;;;;5056750;28;19916;-58
2022/06/16 02:44:21;;;;;;;;;;;14.50;99.90;;;;;;5062521;28;19990;-58
2022/06/16 02:46:52;;;;;;;;;;;14.50;99.90;;;;;;5057369;28;19917;-58
2022/06/16 02:49:36;;;;;;;;;;;14.50;99.90;;;;;;5061179;28;20373;-59
2022/06/16 02:52:20;;;;;;;;;;;14.50;99.90;;;;;;5063230;28;19913;-58
2022/06/16 02:54:51;;;;;;;;;;;14.40;99.90;;;;;;5059695;28;19921;-58
2022/06/16 02:57:33;;;;;;;;;;;14.30;99.90;;;;;;5059791;28;19921;-58
2022/06/16 03:00:00;;;;;;;;;;;14.30;99.90;;;;;;5059928;28;19920;-58
2022/06/16 03:02:26;;;;;;;;;;;14.10;99.90;;;;;;5055141;28;19913;-58
2022/06/16 03:04:54;;;;;;;;;;;13.90;99.90;;;;;;5067656;28;19916;-58
2022/06/16 03:07:20;;;;;;;;;;;13.80;99.90;;;;;;5056229;28;19924;-58
2022/06/16 03:09:45;;;;;;;;;;;13.70;99.90;;;;;;5065678;28;19946;-59
2022/06/16 03:12:12;;;;;;;;;;;13.80;99.90;;;;;;5061286;28;20270;-59
2022/06/16 03:14:38;;;;;;;;;;;13.60;99.90;;;;;;5070359;28;20444;-59
2022/06/16 03:17:04;;;;;;;;;;;13.50;99.90;;;;;;5065135;28;19916;-59
2022/06/16 03:19:29;;;;;;;;;;;13.30;99.90;;;;;;5069946;28;20533;-59
2022/06/16 03:21:56;;;;;;;;;;;13.30;99.90;;;;;;5057986;28;19917;-59
2022/06/16 03:24:21;;;;;;;;;;;13.30;99.90;;;;;;5061512;28;20129;-59
2022/06/16 03:26:47;;;;;;;;;;;13.20;99.90;;;;;;5056805;28;20011;-59
2022/06/16 03:29:13;;;;;;;;;;;13.30;99.90;;;;;;5059488;28;19918;-59
2022/06/16 03:31:38;;;;;;;;;;;13.30;99.90;;;;;;5051952;28;19913;-59
2022/06/16 03:34:04;;;;;;;;;;;13.20;99.90;;;;;;5067155;28;19912;-59
2022/06/16 03:36:29;;;;;;;;;;;13.10;99.90;;;;;;5065404;28;20356;-59
2022/06/16 03:38:55;;;;;;;;;;;13.10;99.90;;;;;;5069633;28;19916;-59
2022/06/16 03:41:20;;;;;;;;;;;13.10;99.90;;;;;;5062850;28;19965;-59
2022/06/16 03:43:46;;;;;;;;;;;13.20;99.90;;;;;;5066987;28;20383;-59
2022/06/16 03:46:12;;;;;;;;;;;13.20;99.90;;;;;;5056324;28;20486;-59
2022/06/16 03:48:38;;;;;;;;;;;13.30;99.90;;;;;;5075208;28;20870;-59
2022/06/16 03:51:05;;;;;;;;;;;13.40;99.90;;;;;;5064519;28;19973;-59
2022/06/16 03:53:31;;;;;;;;;;;13.30;99.90;;;;;;5058133;28;19924;-59
2022/06/16 03:55:57;;;;;;;;;;;13.50;99.90;;;;;;5067978;28;19916;-59
2022/06/16 03:58:22;;;;;;;;;;;13.50;99.90;;;;;;5063153;28;20477;-59
2022/06/16 04:00:48;;;;;;;;;;;13.50;99.90;;;;;;5062351;28;19919;-59
2022/06/16 04:05:57;;;;;;;;;;;13.60;99.90;;;;;;5058462;28;20303;-59
2022/06/16 04:08:23;;;;;;;;;;;13.40;99.90;;;;;;5060536;28;20011;-59
2022/06/16 04:10:48;;;;;;;;;;;13.40;99.90;;;;;;5063682;28;19974;-59
2022/06/16 04:13:15;;;;;;;;;;;13.50;99.90;;;;;;5058996;28;19997;-59
2022/06/16 04:15:40;;;;;;;;;;;13.40;99.90;;;;;;5053579;28;19963;-59
2022/06/16 04:18:06;;;;;;;;;;;13.50;99.90;;;;;;5060814;28;19939;-59
2022/06/16 04:20:31;;;;;;;;;;;13.50;99.90;;;;;;5060139;28;20011;-59
2022/06/16 04:22:57;;;;;;;;;;;13.60;99.90;;;;;;5049597;28;19967;-59
2022/06/16 04:25:30;;;;;;;;;;;13.60;99.90;;;;;;5054135;28;19923;-59
2022/06/16 04:27:57;;;;;;;;;;;13.80;99.90;;;;;;5059681;28;20003;-59
2022/06/16 04:30:22;;;;;;;;;;;13.70;99.90;;;;;;5061229;28;19913;-59
2022/06/16 04:32:48;;;;;;;;;;;13.60;99.90;;;;;;5054954;28;20580;-58
2022/06/16 04:35:13;;;;;;;;;;;13.50;99.90;;;;;;5057195;28;19924;-58
2022/06/16 04:37:39;;;;;;;;;;;13.50;99.90;;;;;;5058856;28;19920;-58
2022/06/16 04:40:04;;;;;;;;;;;13.50;99.90;;;;;;5054270;28;19919;-58
2022/06/16 04:42:30;;;;;;;;;;;13.70;99.90;;;;;;5059003;28;19939;-58
2022/06/16 04:44:55;;;;;;;;;;;13.80;99.90;;;;;;5057338;28;19919;-58
2022/06/16 04:47:21;;;;;;;;;;;13.80;99.90;;;;;;5056985;28;19987;-58
2022/06/16 04:49:48;;;;;;;;;;;13.80;99.90;;;;;;5059680;28;19924;-58
2022/06/16 04:52:17;;;;;;;;;;;13.90;99.90;;;;;;5059296;28;19913;-58
2022/06/16 04:54:46;;;;;;;;;;;13.90;99.90;;;;;;5054289;28;19971;-58
2022/06/16 04:57:12;;;;;;;;;;;14.00;99.90;;;;;;5059765;28;20699;-58
2022/06/16 04:59:37;;;;;;;;;;;14.00;99.90;;;;;;5060795;28;20006;-58
2022/06/16 05:02:03;;;;;;;;;;;14.10;99.90;;;;;;5056087;28;20015;-58
2022/06/16 05:04:29;;;;;;;;;;;14.00;99.90;;;;;;5057930;28;19916;-58
2022/06/16 05:06:55;;;;;;;;;;;14.10;99.90;;;;;;5052085;28;19921;-57
2022/06/16 05:09:21;;;;;;;;;;;14.20;99.90;;;;;;5055227;28;20013;-57
2022/06/16 05:11:46;;;;;;;;;;;14.20;99.90;;;;;;5051465;28;20003;-57
2022/06/16 05:14:12;;;;;;;;;;;14.30;99.90;;;;;;5062267;28;19940;-58
2022/06/16 05:16:38;;;;;;;;;;;14.40;99.90;;;;;;5056260;28;19920;-58
2022/06/16 05:19:03;;;;;;;;;;;14.40;99.90;;;;;;5056016;28;20292;-57
2022/06/16 05:21:29;;;;;;;;;;;14.30;99.90;;;;;;5062505;28;19952;-58
2022/06/16 05:23:54;;;;;;;;;;;14.40;99.90;;;;;;5062723;28;20535;-57
2022/06/16 05:26:20;;;;;;;;;;;14.40;99.90;;;;;;5059671;28;19913;-57
2022/06/16 05:28:45;;;;;;;;;;;14.50;99.90;;;;;;5060485;28;19940;-58
2022/06/16 05:31:11;;;;;;;;;;;14.60;99.90;;;;;;5052681;28;20372;-58
2022/06/16 05:33:36;;;;;;;;;;;14.60;99.90;;;;;;5057285;28;20058;-58
2022/06/16 05:36:07;;;;;;;;;;;14.70;99.90;;;;;;5059935;28;19950;-58
2022/06/16 05:38:32;;;;;;;;;;;14.80;99.90;;;;;;5054394;28;19920;-57
2022/06/16 05:40:59;;;;;;;;;;;14.80;99.90;;;;;;5056429;28;19935;-58
2022/06/16 05:43:25;;;;;;;;;;;14.80;99.90;;;;;;5055989;28;19956;-57
2022/06/16 05:45:51;;;;;;;;;;;14.80;99.90;;;;;;5057242;28;19927;-58
2022/06/16 05:48:17;;;;;;;;;;;14.70;99.90;;;;;;5060289;28;20644;-58
2022/06/16 05:50:42;;;;;;;;;;;14.90;99.90;;;;;;5052070;28;19994;-57
2022/06/16 05:53:08;;;;;;;;;;;15.00;99.90;;;;;;5055602;28;20047;-58
2022/06/16 05:55:33;;;;;;;;;;;15.10;99.90;;;;;;5057777;28;19920;-58
2022/06/16 05:58:01;;;;;;;;;;;15.10;99.90;;;;;;5056215;28;19927;-58
2022/06/16 06:00:27;;;;;;;;;;;15.10;99.90;;;;;;5056551;28;19917;-58
2022/06/16 06:02:55;;;;;;;;;;;15.00;99.90;;;;;;5052166;28;19927;-58
2022/06/16 06:05:21;;;;;;;;;;;15.10;99.90;;;;;;5054433;28;20008;-58
2022/06/16 06:18:43;;;;;;;;;;;15.60;99.90;;;;;;5059813;28;19931;-57
2022/06/16 06:21:08;;;;;;;;;;;15.70;99.90;;;;;;5054898;28;19917;-58
2022/06/16 06:23:34;;;;;;;;;;;15.70;99.90;;;;;;5055188;28;19917;-58
2022/06/16 06:25:59;;;;;;;;;;;15.60;99.90;;;;;;5054067;28;20627;-58
2022/06/16 06:28:25;;;;;;;;;;;15.70;99.90;;;;;;5056488;28;19921;-58
2022/06/16 06:30:50;;;;;;;;;;;15.80;99.90;;;;;;5053035;28;19931;-57
2022/06/16 06:33:16;;;;;;;;;;;15.80;99.90;;;;;;5056598;28;19944;-58
2022/06/16 06:35:41;;;;;;;;;;;15.80;99.90;;;;;;5057470;28;20371;-57
2022/06/16 06:38:07;;;;;;;;;;;15.80;99.90;;;;;;5056435;28;20375;-58
2022/06/16 06:40:34;;;;;;;;;;;15.90;99.90;;;;;;5060386;28;19935;-58
2022/06/16 06:43:00;;;;;;;;;;;16.00;99.90;;;;;;5057560;28;20411;-58
2022/06/16 06:45:26;;;;;;;;;;;16.00;99.90;;;;;;5060661;28;19909;-58
2022/06/16 06:47:53;;;;;;;;;;;15.90;99.90;;;;;;5067249;28;20474;-58
2022/06/16 06:50:23;;;;;;;;;;;16.00;99.90;;;;;;5060444;28;20387;-57
2022/06/16 06:52:50;;;;;;;;;;;16.00;99.90;;;;;;5055285;28;20067;-58
2022/06/16 06:55:15;;;;;;;;;;;16.10;99.90;;;;;;5059753;28;19912;-58
2022/06/16 06:57:41;;;;;;;;;;;16.10;99.90;;;;;;5055621;28;19990;-58
2022/06/16 07:00:07;;;;;;;;;;;16.20;99.90;;;;;;5058175;28;19920;-58
2022/06/16 07:02:33;;;;;;;;;;;16.40;99.90;;;;;;5058237;28;19926;-58
2022/06/16 07:04:58;;;;;;;;;;;16.40;99.90;;;;;;5058051;28;19916;-60
2022/06/16 07:07:24;;;;;;;;;;;16.30;99.90;;;;;;5052645;28;19920;-58
2022/06/16 07:09:50;;;;;;;;;;;16.20;99.90;;;;;;5055366;28;19923;-59
2022/06/16 07:12:16;;;;;;;;;;;16.40;99.90;;;;;;5057252;28;20412;-59
2022/06/16 07:14:51;;;;;;;;;;;16.50;99.90;;;;;;5057844;28;19913;-59
2022/06/16 07:17:19;;;;;;;;;;;16.70;99.90;;;;;;5060705;28;19978;-58
2022/06/16 07:19:44;;;;;;;;;;;16.90;99.90;;;;;;5055227;28;19920;-58
2022/06/16 07:22:10;;;;;;;;;;;17.00;99.90;;;;;;5051336;28;20444;-58
2022/06/16 07:24:36;;;;;;;;;;;17.10;99.90;;;;;;5058044;28;19915;-59
2022/06/16 07:27:02;;;;;;;;;;;17.10;99.90;;;;;;5060795;28;20808;-59
2022/06/16 07:29:27;;;;;;;;;;;17.10;99.90;;;;;;5060698;28;19916;-59
2022/06/16 07:31:53;;;;;;;;;;;17.30;99.90;;;;;;5057997;28;19979;-59
2022/06/16 07:34:18;;;;;;;;;;;17.40;99.90;;;;;;5060433;28;19924;-59
2022/06/16 07:36:44;;;;;;;;;;;17.30;99.90;;;;;;5056215;28;20136;-59
2022/06/16 07:39:09;;;;;;;;;;;17.40;99.90;;;;;;5057534;28;19916;-59
2022/06/16 07:41:35;;;;;;;;;;;17.40;99.90;;;;;;5056982;28;19923;-59
2022/06/16 07:44:03;;;;;;;;;;;17.30;99.90;;;;;;5056918;28;19916;-58
2022/06/16 07:46:29;;;;;;;;;;;17.40;99.90;;;;;;5057166;28;19916;-59
2022/06/16 07:48:54;;;;;;;;;;;17.70;99.90;;;;;;5052057;28;19966;-59
2022/06/16 07:51:20;;;;;;;;;;;17.70;99.90;;;;;;5056174;28;19917;-59
2022/06/16 07:53:47;;;;;;;;;;;17.80;99.90;;;;;;5054909;28;19916;-59
2022/06/16 07:56:13;;;;;;;;;;;18.00;99.90;;;;;;5060922;28;19936;-59
2022/06/16 07:58:39;;;;;;;;;;;18.00;99.90;;;;;;5058722;28;20352;-59
2022/06/16 08:01:07;;;;;;;;;;;18.10;99.90;;;;;;5053869;28;20105;-59
2022/06/16 08:03:33;;;;;;;;;;;18.10;99.90;;;;;;5055272;28;20284;-59
2022/06/16 08:05:58;;;;;;;;;;;18.40;99.90;;;;;;5059473;28;20498;-59
2022/06/16 08:08:25;;;;;;;;;;;18.70;99.90;;;;;;5055013;28;20011;-58
2022/06/16 08:10:51;;;;;;;;;;;19.10;99.90;;;;;;5054561;28;19921;-59
2022/06/16 08:13:17;;;;;;;;;;;19.30;99.90;;;;;;5061255;28;19962;-59
2022/06/16 08:15:45;;;;;;;;;;;19.70;99.90;;;;;;5058423;28;20014;-59
2022/06/16 08:18:13;;;;;;;;;;;19.90;99.90;;;;;;5063330;28;19917;-59
2022/06/16 08:20:39;;;;;;;;;;;20.60;99.30;;;;;;5059131;28;20360;-59
2022/06/16 08:23:04;;;;;;;;;;;20.90;98.90;;;;;;5059254;28;19927;-59
2022/06/16 08:25:30;;;;;;;;;;;21.20;97.40;;;;;;5061512;28;19912;-59
2022/06/16 08:27:56;;;;;;;;;;;21.20;96.80;;;;;;5055752;28;19912;-60
2022/06/16 08:30:23;;;;;;;;;;;21.10;95.80;;;;;;5055057;28;19916;-59
2022/06/16 08:32:49;;;;;;;;;;;21.70;95.00;;;;;;5055962;28;19916;-59
2022/06/16 08:35:15;;;;;;;;;;;22.50;94.00;;;;;;5057382;28;20640;-60
2022/06/16 08:37:40;;;;;;;;;;;22.90;92.80;;;;;;5057329;28;20035;-59
2022/06/16 08:40:07;;;;;;;;;;;21.80;93.20;;;;;;5056709;28;19916;-59
2022/06/16 08:42:39;;;;;;;;;;;21.80;93.10;;;;;;5052875;28;19967;-59
2022/06/16 08:45:07;;;;;;;;;;;22.00;92.30;;;;;;5058465;28;19916;-59
2022/06/16 08:47:43;;;;;;;;;;;23.20;92.00;;;;;;5063556;28;19912;-59
2022/06/16 08:50:08;;;;;;;;;;;22.60;91.30;;;;;;5074113;28;19913;-60
2022/06/16 08:52:41;;;;;;;;;;;22.90;90.90;;;;;;5053765;28;19913;-58
2022/06/16 08:55:12;;;;;;;;;;;22.70;91.00;;;;;;5057255;28;19917;-60
2022/06/16 08:57:37;;;;;;;;;;;23.10;88.70;;;;;;5051755;28;20581;-59
2022/06/16 09:00:05;;;;;;;;;;;22.50;88.30;;;;;;5053181;28;19925;-59
2022/06/16 09:02:31;;;;;;;;;;;22.90;87.50;;;;;;5056476;28;20689;-59
2022/06/16 09:05:05;;;;;;;;;;;22.90;87.50;;;;;;5057598;28;19960;-59
2022/06/16 09:07:31;;;;;;;;;;;21.70;87.20;;;;;;5054889;28;19920;-59
2022/06/16 09:10:15;;;;;;;;;;;21.90;87.30;;;;;;5054173;28;19990;-59
2022/06/16 09:12:59;;;;;;;;;;;22.90;85.70;;;;;;5075632;28;19912;-59
2022/06/16 09:15:27;;;;;;;;;;;22.90;84.10;;;;;;5052798;28;19974;-60
2022/06/16 09:18:11;;;;;;;;;;;22.60;84.20;;;;;;5058550;28;19931;-59
2022/06/16 09:20:43;;;;;;;;;;;23.10;81.20;;;;;;5054877;28;20332;-59
2022/06/16 09:23:19;;;;;;;;;;;22.60;82.10;;;;;;5047691;28;19920;-59
2022/06/16 09:25:54;;;;;;;;;;;22.40;85.10;;;;;;5056306;28;20719;-59
2022/06/16 09:28:20;;;;;;;;;;;23.20;82.00;;;;;;5060395;28;19924;-60
2022/06/16 09:30:47;;;;;;;;;;;23.40;83.10;;;;;;5055144;28;19908;-59
2022/06/16 09:33:18;;;;;;;;;;;22.90;80.80;;;;;;5053780;28;19913;-59
2022/06/16 09:35:46;;;;;;;;;;;22.60;82.90;;;;;;5053334;28;19967;-59
2022/06/16 09:38:33;;;;;;;;;;;23.10;80.40;;;;;;5053485;28;19931;-60
2022/06/16 09:40:58;;;;;;;;;;;22.70;82.40;;;;;;5061751;28;19923;-58
2022/06/16 09:43:41;;;;;;;;;;;23.90;82.00;;;;;;5060575;28;20361;-59
2022/06/16 09:46:15;;;;;;;;;;;23.90;79.90;;;;;;5051967;28;19943;-59
2022/06/16 09:48:47;;;;;;;;;;;23.60;79.00;;;;;;5052006;28;19961;-59
2022/06/16 09:51:28;;;;;;;;;;;23.80;79.10;;;;;;5054742;28;19951;-60
2022/06/16 09:54:00;;;;;;;;;;;23.80;79.70;;;;;;5047119;28;19970;-59
2022/06/16 09:56:31;;;;;;;;;;;23.70;78.20;;;;;;5060481;28;19916;-59
2022/06/16 09:59:03;;;;;;;;;;;23.90;77.10;;;;;;5052148;28;19923;-60
2022/06/16 10:01:31;;;;;;;;;;;23.90;78.30;;;;;;5051121;28;19920;-59
2022/06/16 10:03:58;;;;;;;;;;;23.90;72.80;;;;;;5056435;28;20063;-60
2022/06/16 10:06:35;;;;;;;;;;;23.80;76.40;;;;;;5054428;28;19928;-59
2022/06/16 10:12:11;;;;;;;3.47;1.10;;;24.70;82.90;;;;;;5140692;27;20364;-57
2022/06/16 10:15:04;;;;;;;2.97;1.10;;;25.70;73.10;;;;;;5131279;27;20023;-57
2022/06/16 10:17:32;;;;;;;3.60;1.00;;;25.60;72.60;;;;;;5138736;27;20027;-56
2022/06/16 10:19:58;;;;;;;3.28;1.20;;;26.20;75.00;;;;;;5129989;27;20077;-56
2022/06/16 10:22:25;;;;;;;3.28;1.05;;;26.50;73.80;;;;;;5127536;27;20031;-57
2022/06/16 10:24:54;;;;;;;3.40;1.10;;;27.30;69.80;;;;;;5132384;27;20038;-57
2022/06/16 10:27:21;;;;;;;5.65;1.00;;;27.60;70.40;;;;;;5140643;27;20040;-57
2022/06/16 10:29:58;;;;;;;4.95;1.10;;;27.40;69.10;;;;;;5134802;27;20032;-57
2022/06/16 10:33:00;;;;;;;4.25;1.20;;;27.20;68.50;;;;;;5132668;27;20035;-57
2022/06/16 10:35:26;;;;;;;5.60;1.23;;;27.50;68.40;;;;;;5123060;27;20035;-56
2022/06/16 10:37:53;;;;;;;2.03;0.90;;;26.80;69.30;;;;;;5130611;27;20026;-57
2022/06/16 10:40:36;;;;;;;2.60;0.98;;;26.90;69.00;;;;;;5130212;27;20085;-57
2022/06/16 10:43:09;;;;;;;3.05;1.02;;;27.10;66.10;;;;;;5133600;27;20460;-57
2022/06/16 10:45:37;;;;;;;4.45;1.15;;;26.50;66.20;;;;;;5132585;27;20034;-57
2022/06/16 10:48:06;;;;;;;4.28;1.10;;;26.60;68.80;;;;;;5133001;27;20089;-56
2022/06/16 10:50:36;;;;;;;3.38;1.10;;;26.70;68.70;;;;;;5128411;27;20026;-57
2022/06/16 10:53:22;;;;;;;4.97;1.08;;;26.90;66.50;;;;;;5127276;27;20031;-56
2022/06/16 10:55:49;;;;;;;3.63;1.20;;;27.50;67.40;;;;;;5124924;27;20074;-56
2022/06/16 10:58:26;;;;;;;4.90;1.20;;;27.70;66.30;;;;;;5127649;27;20019;-57
2022/06/16 11:01:08;;;;;;;4.35;1.20;;;27.60;66.00;;;;;;5130536;27;20035;-56
2022/06/16 11:03:40;;;;;;;4.03;1.10;;;28.10;66.90;;;;;;5131308;27;20137;-57
2022/06/16 11:06:07;;;;;;;3.78;1.30;;;28.20;65.50;;;;;;5128495;27;20034;-57
2022/06/16 11:08:40;;;;;;;4.63;1.20;;;28.80;68.80;;;;;;5125108;27;20065;-57
2022/06/16 11:11:06;;;;;;;4.97;1.50;;;29.20;66.80;;;;;;5127250;27;20047;-56
2022/06/16 11:13:53;;;;;;;5.07;1.20;;;28.20;65.10;;;;;;5126459;27;20023;-57
2022/06/16 11:16:30;;;;;;;3.85;1.20;;;27.90;67.90;;;;;;5128318;27;20023;-56
2022/06/16 11:18:59;;;;;;;3.30;1.17;;;28.00;66.50;;;;;;5125620;27;20035;-57
2022/06/16 11:21:29;;;;;;;6.07;1.52;;;27.50;65.80;;;;;;5126967;27;20039;-57
2022/06/16 11:23:58;;;;;;;3.78;1.20;;;28.30;66.00;;;;;;5113602;27;20027;-57
2022/06/16 11:26:28;;;;;;;5.45;1.40;;;28.90;66.60;;;;;;5117521;27;20114;-56
2022/06/16 11:29:20;;;;;;;2.67;1.23;;;28.90;65.60;;;;;;5114722;27;20040;-57
2022/06/16 11:32:02;;;;;;;3.45;1.20;;;28.50;65.00;;;;;;5118306;27;20146;-57
2022/06/16 11:34:28;;;;;;;5.63;1.40;;;29.30;65.30;;;;;;5117024;27;20057;-56
2022/06/16 11:37:09;;;;;;;4.32;1.27;;;28.70;63.60;;;;;;5122017;27;20042;-57
2022/06/16 11:40:14;;;;;;;3.03;1.10;;;29.90;66.10;;;;;;5121020;27;20065;-57
2022/06/16 11:43:17;;;;;;;5.28;1.40;;;31.20;64.30;;;;;;5068176;28;20542;-57
2022/06/16 11:45:52;;;;;;;6.45;1.50;;;31.30;63.10;;;;;;5114686;27;20054;-57
2022/06/16 11:48:27;;;;;;;5.38;1.40;;;31.00;62.00;;;;;;5118759;27;20027;-57
2022/06/16 11:51:05;;;;;;;4.40;1.35;;;30.50;62.50;;;;;;5107566;27;20464;-57
2022/06/16 11:54:10;;;;;;;4.00;1.30;;;30.80;63.60;;;;;;5119574;27;20094;-57
2022/06/16 11:56:53;;;;;;;4.22;1.50;;;30.50;62.30;;;;;;5122693;27;20053;-56
2022/06/16 11:59:25;;;;;;;6.95;1.65;;;29.80;63.90;;;;;;5115392;27;20105;-56
2022/06/16 12:02:16;;;;;;;6.05;1.35;;;29.60;64.20;;;;;;5119710;27;20698;-56
2022/06/16 12:05:08;;;;;;;5.40;1.70;;;30.10;63.50;;;;;;5117074;27;20035;-56
2022/06/16 12:08:13;;;;;;;4.38;1.45;;;30.10;63.60;;;;;;5121568;27;20089;-56
2022/06/16 12:10:44;;;;;;;4.40;1.50;;;31.20;63.60;;;;;;5126185;27;20104;-57
2022/06/16 12:13:23;;;;;;;5.10;1.60;;;32.20;62.00;;;;;;5116491;27;20027;-56
2022/06/16 12:16:02;;;;;;;4.45;1.60;;;31.50;62.00;;;;;;5115890;27;20031;-57
2022/06/16 12:18:59;;;;;;;4.85;1.65;;;31.20;62.50;;;;;;5118117;27;20020;-57
2022/06/16 12:21:40;;;;;;;4.57;1.60;;;30.80;62.60;;;;;;5116984;27;20135;-57
2022/06/16 12:24:18;;;;;;;5.22;1.63;;;31.40;63.20;;;;;;5114309;27;20027;-57
2022/06/16 12:27:01;;;;;;;4.72;1.60;;;31.50;62.60;;;;;;5111267;27;20019;-58
2022/06/16 12:29:45;;;;;;;7.03;1.70;;;31.50;62.70;;;;;;5115616;27;20051;-57
2022/06/16 12:32:32;;;;;;;5.35;1.70;;;32.40;61.50;;;;;;5114037;27;20027;-58
2022/06/16 12:35:09;;;;;;;4.55;1.83;;;32.50;61.30;;;;;;5116960;27;20670;-57
2022/06/16 12:37:41;;;;;;;7.93;1.60;;;32.80;61.00;;;;;;5112735;27;20019;-57
2022/06/16 12:40:13;;;;;;;3.83;1.48;;;32.40;61.00;;;;;;5110915;27;20042;-57
2022/06/16 12:42:47;;;;;;;6.07;1.60;;;32.50;60.70;;;;;;5113385;27;20500;-57
2022/06/16 12:45:21;;;;;;;7.32;1.80;;;32.90;60.20;;;;;;5116505;27;20124;-57
2022/06/16 12:48:12;;;;;;;12.77;1.63;;;33.60;58.50;;;;;;5113596;27;20035;-57
2022/06/16 12:50:44;;;;;;;5.57;1.90;;;34.10;60.30;;;;;;5110762;27;20035;-57
2022/06/16 12:53:26;;;;;;;6.35;1.60;;;33.90;58.60;;;;;;5113335;27;20024;-57
2022/06/16 12:55:56;;;;;;;5.13;1.70;;;33.40;58.90;;;;;;5109172;27;20075;-57
2022/06/16 12:58:37;;;;;;;5.00;1.80;;;33.40;59.10;;;;;;5113311;27;20100;-57
2022/06/16 13:01:05;;;;;;;5.28;1.50;;;33.80;59.00;;;;;;5114459;27;20019;-57
2022/06/16 13:03:47;;;;;;;4.47;1.52;;;32.90;59.30;;;;;;5107968;27;20486;-57
2022/06/16 13:06:15;;;;;;;6.50;1.80;;;32.80;60.30;;;;;;5115122;27;20055;-57
2022/06/16 13:08:45;;;;;;;4.57;1.60;;;34.00;59.90;;;;;;5113273;27;20019;-57
2022/06/16 13:11:34;;;;;;;5.05;1.80;;;34.70;59.10;;;;;;5111920;27;20040;-57
2022/06/16 13:14:08;;;;;;;5.63;1.65;;;35.00;58.90;;;;;;5111432;27;20040;-58
2022/06/16 13:16:38;;;;;;;4.88;1.45;;;34.70;57.90;;;;;;5111586;27;20024;-57
2022/06/16 13:19:20;;;;;;;7.05;1.50;;;35.00;58.00;;;;;;5113964;27;20390;-58
2022/06/16 13:21:54;;;;;;;5.32;1.63;;;34.60;57.80;;;;;;5109806;27;20746;-57
2022/06/16 13:24:33;;;;;;;5.15;1.80;;;35.60;59.10;;;;;;5048051;27;20051;-58
2022/06/16 13:27:26;;;;;;;4.72;1.67;;;33.40;57.70;;;;;;5075686;28;20108;-57
2022/06/16 13:29:52;;;;;;;7.30;1.80;;;32.50;59.10;;;;;;5075916;28;20055;-57
2022/06/16 13:32:39;;;;;;;5.80;1.88;;;34.20;59.00;;;;;;5083668;28;20060;-57
2022/06/16 13:35:14;;;;;;;6.28;1.85;;;34.20;58.40;;;;;;5080555;28;20021;-57
2022/06/16 13:37:46;;;;;;;6.40;1.70;;;34.60;57.10;;;;;;5083875;28;20027;-57
2022/06/16 13:40:25;;;;;;;4.85;1.58;;;35.20;57.60;;;;;;5081033;28;20038;-57
2022/06/16 13:42:51;;;;;;;4.70;1.48;;;35.60;58.00;;;;;;5080839;28;20036;-57
2022/06/16 13:45:28;;;;;;;6.32;1.80;;;35.40;56.60;;;;;;5084028;28;20047;-57
2022/06/16 13:48:08;;;;;;;7.05;2.75;;;32.60;58.00;;;;;;5084069;28;20056;-57
2022/06/16 13:50:54;;;;;;;6.18;1.65;;;32.20;59.40;;;;;;5082598;28;20036;-58
2022/06/16 13:53:23;;;;;;;4.93;1.70;;;32.90;58.30;;;;;;5081574;28;20433;-57
2022/06/16 13:56:05;;;;;;;9.55;2.05;;;30.90;59.90;;;;;;5080713;28;20386;-56
2022/06/16 13:58:55;;;;;;;7.07;2.08;;;29.70;61.20;;;;;;5079521;28;20109;-57
2022/06/16 14:01:27;;;;;;;5.65;2.10;;;28.60;62.30;;;;;;5083163;28;20073;-58
2022/06/16 14:03:58;;;;;;;6.82;1.80;;;29.60;63.10;;;;;;5079032;28;20396;-58
2022/06/16 14:06:37;;;;;;;5.55;2.00;;;31.60;61.30;;;;;;5072935;28;20036;-57
2022/06/16 14:09:14;;;;;;;6.03;1.77;;;32.70;60.00;;;;;;5077093;28;20056;-57
2022/06/16 14:12:05;;;;;;;4.90;1.60;;;34.20;58.70;;;;;;5083110;28;20052;-58
2022/06/16 14:14:56;;;;;;;5.50;1.90;;;35.60;58.50;;;;;;5083846;28;20020;-58
2022/06/16 14:17:37;;;;;;;5.05;1.80;;;34.40;58.30;;;;;;5083362;28;20035;-58
2022/06/16 14:20:20;;;;;;;7.07;1.88;;;35.00;56.20;;;;;;5068528;28;20055;-57
2022/06/16 14:22:49;;;;;;;7.32;1.92;;;35.90;56.20;;;;;;5070731;28;20055;-57
2022/06/16 14:25:21;;;;;;;5.93;1.80;;;36.00;55.60;;;;;;5070105;28;20021;-57
2022/06/16 14:27:56;;;;;;;6.38;2.10;;;33.60;55.60;;;;;;5072032;28;20270;-57
2022/06/16 14:30:31;;;;;;;8.18;2.15;;;30.80;57.90;;;;;;5078471;28;20024;-57
2022/06/16 14:33:05;;;;;;;5.65;2.03;;;30.10;60.20;;;;;;5079476;28;20074;-56